Ciudad Rodrigo, Spain
Current Conditions -  °F | °C
As of 8:00 PM on Wednesday 26 Nov 2014 (Local Time) from LESA Reporting Station
Clear Clear  
Wind Chill: 39°   Ceiling: Unl
Heat Index: 39°   Visibility: 6mi
Dew Point: 37°   Wind: 1mph
Humidity: 93%   Direction: NA
Pressure: 29.8"   Gusts: NA
Location:  40.6°N, 6.52°W
Report Text: LESA 261900Z VRB01KT CAVOK 04/03 Q1009
Loading
Personal Weather Stations






























Interactive Weather Map New forecast layout! Learn more

10-Day Weather Forecast

Advertisements
Track Severe Weather on mobile